Time;durP1;ratioP1;P1;durP2;ratioP2;P2;SDS_P1;SDS_P2;PMS_P1;PMS_P2;Temp;Humidity;BMP_temperature;BMP_pressure;BME280_temperature;BME280_humidity;BME280_pressure;Samples;Min_cycle;Max_cycle;Signal;HPM_P1;HPM_P2
2022/05/31 00:01:13;;;;;;;3.60;2.97;;;11.30;97.80;;;;;;5016149;28;20485;-47
2022/05/31 00:03:39;;;;;;;3.17;2.85;;;11.30;97.50;;;;;;5015676;28;20060;-50
2022/05/31 00:06:05;;;;;;;5.68;3.13;;;11.20;98.00;;;;;;5015929;28;20030;-51
2022/05/31 00:08:32;;;;;;;6.80;2.97;;;11.30;97.90;;;;;;5015358;28;20025;-50
2022/05/31 00:11:00;;;;;;;3.60;2.70;;;11.20;98.00;;;;;;5015787;28;20079;-48
2022/05/31 00:13:27;;;;;;;4.80;3.22;;;11.20;98.20;;;;;;5015845;28;20450;-50
2022/05/31 00:15:53;;;;;;;4.00;2.55;;;11.20;98.10;;;;;;5015545;28;20022;-50
2022/05/31 00:18:18;;;;;;;3.67;3.28;;;11.20;98.30;;;;;;5015271;28;20468;-47
2022/05/31 00:20:44;;;;;;;8.65;3.40;;;11.10;98.30;;;;;;5015466;28;20442;-49
2022/05/31 00:23:09;;;;;;;7.22;4.00;;;11.10;98.50;;;;;;5015387;28;20037;-48
2022/05/31 00:25:35;;;;;;;7.15;3.00;;;11.10;98.70;;;;;;5015498;28;20041;-47
2022/05/31 00:28:01;;;;;;;5.35;3.90;;;11.00;98.70;;;;;;5015409;28;20495;-47
2022/05/31 00:30:26;;;;;;;4.38;3.33;;;11.00;98.80;;;;;;4997727;28;20026;-46
2022/05/31 00:32:52;;;;;;;3.45;3.13;;;11.00;98.90;;;;;;5015410;28;20505;-47
2022/05/31 00:35:28;;;;;;;5.40;3.38;;;11.00;98.90;;;;;;5015340;28;20022;-49
2022/05/31 00:37:56;;;;;;;3.78;3.15;;;10.90;99.10;;;;;;5015260;28;20026;-47
2022/05/31 00:40:24;;;;;;;7.32;3.55;;;10.90;99.50;;;;;;5014999;28;20030;-47
2022/05/31 00:43:01;;;;;;;6.82;3.72;;;10.90;99.30;;;;;;5015743;28;20073;-49
2022/05/31 00:45:31;;;;;;;3.58;3.28;;;10.80;99.50;;;;;;5015151;28;20022;-48
2022/05/31 00:47:57;;;;;;;5.97;3.60;;;10.80;99.70;;;;;;5014707;28;20040;-51
2022/05/31 00:50:36;;;;;;;6.35;3.25;;;10.80;99.90;;;;;;5015176;28;20030;-49
2022/05/31 00:53:09;;;;;;;5.68;2.78;;;10.70;99.90;;;;;;5015475;28;20025;-47
2022/05/31 00:55:51;;;;;;;4.13;2.63;;;10.70;99.90;;;;;;5015952;28;20022;-49
2022/05/31 00:58:25;;;;;;;7.32;3.50;;;10.70;99.90;;;;;;5015980;28;20084;-47
2022/05/31 01:00:51;;;;;;;3.85;3.40;;;10.60;99.90;;;;;;5015206;28;20037;-53
2022/05/31 01:06:00;;;;;;;2.97;2.72;;;10.60;99.90;;;;;;5051818;28;20067;-50
2022/05/31 01:08:26;;;;;;;5.00;2.85;;;10.60;99.90;;;;;;5053272;28;20048;-51
2022/05/31 01:10:52;;;;;;;4.82;3.35;;;10.60;99.90;;;;;;5053798;28;20100;-52
2022/05/31 01:13:18;;;;;;;7.22;3.25;;;10.60;99.90;;;;;;5053781;28;20028;-48
2022/05/31 01:15:45;;;;;;;5.68;3.47;;;10.60;99.90;;;;;;5072959;28;20070;-52
2022/05/31 01:18:12;;;;;;;3.10;2.80;;;10.60;99.90;;;;;;5073606;28;20028;-49
2022/05/31 01:20:38;;;;;;;9.18;3.63;;;10.50;99.90;;;;;;5073435;28;20037;-48
2022/05/31 01:23:16;;;;;;;6.25;3.45;;;10.50;99.90;;;;;;5073738;28;20083;-47
2022/05/31 01:26:11;;;;;;;6.85;3.55;;;10.50;99.90;;;;;;5073749;28;20074;-49
2022/05/31 01:29:19;;;;;;;6.50;3.05;;;10.50;99.90;;;;;;5073623;28;20379;-48
2022/05/31 01:31:58;;;;;;;5.63;3.63;;;10.40;99.90;;;;;;5070252;28;20040;-52
2022/05/31 01:34:53;;;;;;;5.45;3.47;;;10.40;99.90;;;;;;5073545;28;20074;-51
2022/05/31 01:37:26;;;;;;;4.25;2.95;;;10.40;99.90;;;;;;5073227;28;20082;-48
2022/05/31 01:39:56;;;;;;;11.65;3.97;;;10.40;99.90;;;;;;5072979;28;20376;-49
2022/05/31 01:42:42;;;;;;;4.28;3.15;;;10.40;99.90;;;;;;5072030;28;20500;-47
2022/05/31 01:45:11;;;;;;;4.97;3.10;;;10.40;99.90;;;;;;5071995;28;20025;-54
2022/05/31 01:47:37;;;;;;;3.30;3.05;;;10.40;99.90;;;;;;5072766;28;20023;-49
2022/05/31 01:50:05;;;;;;;6.70;3.35;;;10.50;99.90;;;;;;5073026;28;20388;-49
2022/05/31 01:52:32;;;;;;;3.80;3.20;;;10.40;99.90;;;;;;5072981;28;20397;-49
2022/05/31 01:54:58;;;;;;;3.33;2.63;;;10.50;99.90;;;;;;5072929;28;20020;-52
2022/05/31 01:57:25;;;;;;;4.20;3.25;;;10.50;99.90;;;;;;5071373;28;20025;-53
2022/05/31 01:59:59;;;;;;;3.08;2.78;;;10.50;99.90;;;;;;5071702;28;20070;-52
2022/05/31 02:02:25;;;;;;;4.65;2.72;;;10.60;99.90;;;;;;5071966;28;20442;-51
2022/05/31 02:04:51;;;;;;;5.50;3.42;;;10.60;99.90;;;;;;5072621;28;20036;-50
2022/05/31 02:07:20;;;;;;;4.18;2.95;;;10.60;99.90;;;;;;5072369;28;20024;-56
2022/05/31 02:09:50;;;;;;;7.32;3.13;;;10.60;99.90;;;;;;5072651;28;20032;-50
2022/05/31 02:12:18;;;;;;;3.10;2.50;;;10.60;99.90;;;;;;5072363;28;20388;-49
2022/05/31 02:14:44;;;;;;;3.47;2.53;;;10.60;99.90;;;;;;5072334;28;20044;-52
2022/05/31 02:17:10;;;;;;;4.90;2.40;;;10.60;99.90;;;;;;5072295;28;20487;-48
2022/05/31 02:19:36;;;;;;;5.63;2.50;;;10.60;99.90;;;;;;5072632;28;20021;-51
2022/05/31 02:22:06;;;;;;;4.65;2.67;;;10.60;99.90;;;;;;5072553;28;20016;-51
2022/05/31 02:24:32;;;;;;;4.05;2.50;;;10.60;99.90;;;;;;5072517;28;20013;-51
2022/05/31 02:26:57;;;;;;;3.25;2.63;;;10.60;99.90;;;;;;5072215;28;20085;-53
2022/05/31 02:29:29;;;;;;;2.38;2.15;;;10.60;99.90;;;;;;5072524;28;20036;-50
2022/05/31 02:32:00;;;;;;;3.92;2.53;;;10.50;99.90;;;;;;5072301;28;20035;-51
2022/05/31 02:34:31;;;;;;;5.55;2.35;;;10.60;99.90;;;;;;5072525;28;20027;-49
2022/05/31 02:36:57;;;;;;;3.13;2.50;;;10.50;99.90;;;;;;5072476;28;20021;-52
2022/05/31 02:39:23;;;;;;;3.13;2.58;;;10.60;99.90;;;;;;5071267;28;20024;-53
2022/05/31 02:41:49;;;;;;;3.25;2.28;;;10.60;99.90;;;;;;5071999;28;20082;-51
2022/05/31 02:44:15;;;;;;;4.85;2.80;;;10.60;99.90;;;;;;5072443;28;20081;-55
2022/05/31 02:46:42;;;;;;;4.75;3.03;;;10.60;99.90;;;;;;5072550;28;20036;-49
2022/05/31 02:49:08;;;;;;;8.15;3.17;;;10.60;99.90;;;;;;5072119;28;20056;-52
2022/05/31 02:51:41;;;;;;;7.55;3.60;;;10.60;99.90;;;;;;5072230;28;20071;-53
2022/05/31 02:54:08;;;;;;;5.68;2.63;;;10.60;99.90;;;;;;5072177;28;20020;-50
2022/05/31 02:56:34;;;;;;;4.00;2.95;;;10.60;99.90;;;;;;5072154;28;20124;-51
2022/05/31 02:59:00;;;;;;;5.35;2.60;;;10.60;99.90;;;;;;5070529;28;20503;-50
2022/05/31 03:01:28;;;;;;;7.88;3.63;;;10.50;99.90;;;;;;5071955;28;20035;-52
2022/05/31 03:03:54;;;;;;;2.88;2.58;;;10.50;99.90;;;;;;5071980;28;20044;-51
2022/05/31 03:06:20;;;;;;;3.97;2.72;;;10.50;99.90;;;;;;5071987;28;20663;-50
2022/05/31 03:08:46;;;;;;;4.68;2.50;;;10.50;99.90;;;;;;5071468;28;20035;-50
2022/05/31 03:11:29;;;;;;;3.75;2.63;;;10.40;99.90;;;;;;5071789;28;20020;-54
2022/05/31 03:14:30;;;;;;;6.78;2.80;;;10.40;99.90;;;;;;5071550;28;20111;-50
2022/05/31 03:17:05;;;;;;;6.22;2.92;;;10.40;99.90;;;;;;5059257;28;20032;-50
2022/05/31 03:19:33;;;;;;;;;;;10.40;99.90;;;;;;5071192;28;20127;-53
2022/05/31 03:22:05;;;;;;;2.70;2.50;;;10.30;99.90;;;;;;5071794;28;20320;-49
2022/05/31 03:24:40;;;;;;;5.38;2.83;;;10.40;99.90;;;;;;5070643;28;20059;-53
2022/05/31 03:27:08;;;;;;;5.60;2.83;;;10.30;99.90;;;;;;5071420;28;20086;-49
2022/05/31 03:29:36;;;;;;;5.15;2.80;;;10.30;99.90;;;;;;5071683;28;20059;-50
2022/05/31 03:32:01;;;;;;;4.65;2.65;;;10.30;99.90;;;;;;5071597;28;20059;-52
2022/05/31 03:34:27;;;;;;;4.40;2.63;;;10.30;99.90;;;;;;5071709;28;20021;-49
2022/05/31 03:36:53;;;;;;;4.55;2.35;;;10.30;99.90;;;;;;5071462;28;20021;-48
2022/05/31 03:39:18;;;;;;;5.25;2.58;;;10.30;99.90;;;;;;5071787;28;20075;-49
2022/05/31 03:41:44;;;;;;;5.88;3.38;;;10.20;99.90;;;;;;5070893;28;20409;-49
2022/05/31 03:44:09;;;;;;;5.45;2.83;;;10.30;99.90;;;;;;5071470;28;20036;-52
2022/05/31 03:46:35;;;;;;;3.22;2.70;;;10.20;99.90;;;;;;5071158;28;20035;-48
2022/05/31 03:49:00;;;;;;;3.40;2.38;;;10.20;99.90;;;;;;5069950;28;20036;-55
2022/05/31 03:51:26;;;;;;;3.05;2.72;;;10.20;99.90;;;;;;5070167;28;20055;-51
2022/05/31 03:53:52;;;;;;;2.80;2.55;;;10.10;99.90;;;;;;5071531;28;20033;-50
2022/05/31 03:56:17;;;;;;;4.10;2.55;;;10.10;99.90;;;;;;5071450;28;20083;-55
2022/05/31 03:58:43;;;;;;;6.18;2.35;;;10.10;99.90;;;;;;5063211;28;20041;-50
2022/05/31 04:01:08;;;;;;;3.78;2.42;;;10.20;99.90;;;;;;5068630;28;20614;-53
2022/05/31 04:03:34;;;;;;;3.63;2.53;;;10.20;99.90;;;;;;5065808;28;20040;-53
2022/05/31 04:05:59;;;;;;;2.70;2.47;;;10.10;99.90;;;;;;5071270;28;20043;-50
2022/05/31 04:08:25;;;;;;;7.72;2.80;;;10.20;99.90;;;;;;5069427;28;20032;-49
2022/05/31 04:10:53;;;;;;;4.80;2.58;;;10.20;99.90;;;;;;5054085;28;20013;-48
2022/05/31 04:13:19;;;;;;;3.63;2.55;;;10.20;99.90;;;;;;5053110;28;20017;-50
2022/05/31 04:15:44;;;;;;;7.22;2.80;;;10.20;99.90;;;;;;5059143;28;20145;-49
2022/05/31 04:18:10;;;;;;;2.92;2.42;;;10.20;99.90;;;;;;5062632;28;20030;-49
2022/05/31 04:20:41;;;;;;;2.60;2.40;;;10.30;99.90;;;;;;5049634;28;20025;-54
2022/05/31 04:26:02;;;;;;;8.95;3.00;;;10.40;99.90;;;;;;5071807;28;20031;-51
2022/05/31 04:28:27;;;;;;;6.40;2.53;;;10.40;99.90;;;;;;5074194;28;20071;-50
2022/05/31 04:30:53;;;;;;;5.63;2.85;;;10.50;99.90;;;;;;5074570;28;20123;-49
2022/05/31 04:33:18;;;;;;;3.95;2.15;;;10.60;99.90;;;;;;5074423;28;20020;-51
2022/05/31 04:35:44;;;;;;;5.07;3.15;;;10.60;99.90;;;;;;5058917;28;20029;-51
2022/05/31 04:38:09;;;;;;;4.03;2.08;;;10.70;99.90;;;;;;5054143;28;20412;-50
2022/05/31 04:40:38;;;;;;;2.70;2.30;;;10.80;99.90;;;;;;5054444;28;20086;-49
2022/05/31 04:43:04;;;;;;;5.57;2.13;;;11.00;99.90;;;;;;5054067;28;20441;-50
2022/05/31 04:45:30;;;;;;;3.22;2.50;;;11.00;99.90;;;;;;5054299;28;20120;-52
2022/05/31 04:47:55;;;;;;;2.20;2.00;;;11.10;99.90;;;;;;5053901;28;20120;-49
2022/05/31 04:50:22;;;;;;;3.72;2.45;;;11.30;99.90;;;;;;5054126;28;20473;-47
2022/05/31 04:52:48;;;;;;;4.47;2.50;;;11.60;99.90;;;;;;5056407;28;20386;-56
2022/05/31 04:55:14;;;;;;;4.22;2.40;;;12.10;99.50;;;;;;5071175;28;20021;-50
2022/05/31 04:57:39;;;;;;;2.63;2.13;;;12.70;98.30;;;;;;5072382;28;20020;-52
2022/05/31 05:00:06;;;;;;;3.78;2.50;;;13.40;97.10;;;;;;5060018;28;20022;-50
2022/05/31 05:02:32;;;;;;;3.72;2.50;;;13.90;96.00;;;;;;5052528;28;20033;-49
2022/05/31 05:04:57;;;;;;;2.58;1.70;;;14.40;94.80;;;;;;5053619;28;20508;-49
2022/05/31 05:07:23;;;;;;;2.85;2.10;;;15.00;93.90;;;;;;5053596;28;20029;-52
2022/05/31 05:09:48;;;;;;;2.08;1.88;;;15.50;93.10;;;;;;5052245;28;20106;-53
2022/05/31 05:12:14;;;;;;;9.45;2.05;;;15.90;92.50;;;;;;5064672;28;20025;-47
2022/05/31 05:14:39;;;;;;;2.25;1.83;;;16.20;91.70;;;;;;5072372;28;20101;-50
2022/05/31 05:17:05;;;;;;;3.10;1.65;;;16.10;91.50;;;;;;5073496;28;20613;-51
2022/05/31 05:19:32;;;;;;;1.50;1.40;;;16.30;91.40;;;;;;5073523;28;20029;-49
2022/05/31 05:21:57;;;;;;;10.20;2.17;;;16.60;90.90;;;;;;5073565;28;20021;-50
2022/05/31 05:24:23;;;;;;;2.22;1.88;;;16.40;90.70;;;;;;5073405;28;20044;-50
2022/05/31 05:26:48;;;;;;;1.98;1.88;;;16.50;90.90;;;;;;5073213;28;20480;-54
2022/05/31 05:31:58;;;;;;;4.50;1.80;;;15.90;91.20;;;;;;5068856;28;20087;-55
2022/05/31 05:34:23;;;;;;;3.08;1.88;;;15.60;91.90;;;;;;5067717;28;20028;-57
2022/05/31 05:36:49;;;;;;;3.35;2.08;;;15.30;91.90;;;;;;5060379;28;20442;-52
2022/05/31 05:39:15;;;;;;;2.75;1.90;;;15.00;92.40;;;;;;5069149;28;20082;-51
2022/05/31 05:41:41;;;;;;;1.90;1.77;;;14.60;93.00;;;;;;5067550;28;20381;-49
2022/05/31 05:44:07;;;;;;;14.13;2.20;;;14.40;93.60;;;;;;5064587;28;20038;-47
2022/05/31 05:46:33;;;;;;;2.35;2.10;;;14.00;94.30;;;;;;5071972;28;20012;-46
2022/05/31 05:48:58;;;;;;;12.23;2.35;;;13.70;94.80;;;;;;5072485;28;20089;-49
2022/05/31 05:51:30;;;;;;;4.13;2.05;;;13.70;95.00;;;;;;5068229;28;20025;-50
2022/05/31 05:53:56;;;;;;;2.65;1.60;;;13.90;94.60;;;;;;5065289;28;20035;-48
2022/05/31 05:56:22;;;;;;;5.97;2.05;;;14.50;94.00;;;;;;5072683;28;20407;-45
2022/05/31 05:58:49;;;;;;;2.85;1.90;;;15.10;92.80;;;;;;5051910;28;20396;-43
2022/05/31 06:01:22;;;;;;;2.30;1.80;;;15.40;92.40;;;;;;5053005;28;20119;-47
2022/05/31 06:03:56;;;;;;;5.30;2.75;;;15.30;92.80;;;;;;5054767;28;20116;-47
2022/05/31 06:06:23;;;;;;;3.00;2.10;;;15.00;92.80;;;;;;5063599;28;20066;-45
2022/05/31 06:09:00;;;;;;;2.95;1.83;;;15.00;93.20;;;;;;5072388;28;20396;-42
2022/05/31 06:11:35;;;;;;;12.75;3.45;;;14.90;93.20;;;;;;5072361;28;20025;-46
2022/05/31 06:14:05;;;;;;;7.28;2.15;;;14.60;93.40;;;;;;5071609;28;20036;-43
2022/05/31 06:16:35;;;;;;;7.07;2.20;;;14.70;93.70;;;;;;5068827;28;20461;-45
2022/05/31 06:19:33;;;;;;;4.20;2.60;;;14.70;93.20;;;;;;5059316;28;20475;-48
2022/05/31 06:21:59;;;;;;;3.83;2.00;;;14.30;94.00;;;;;;5052052;28;20074;-48
2022/05/31 06:24:28;;;;;;;8.80;2.25;;;14.00;94.70;;;;;;5062673;28;20028;-47
2022/05/31 06:26:54;;;;;;;3.53;2.40;;;14.00;95.00;;;;;;5068776;28;20127;-44
2022/05/31 06:29:19;;;;;;;6.47;2.75;;;14.00;95.20;;;;;;5067689;28;20031;-48
2022/05/31 06:31:45;;;;;;;2.95;1.90;;;14.30;94.80;;;;;;5072099;28;20036;-50
2022/05/31 06:34:10;;;;;;;7.97;2.03;;;14.70;94.10;;;;;;5062987;28;20456;-44
2022/05/31 06:36:36;;;;;;;12.32;2.33;;;14.90;93.90;;;;;;5052251;28;20043;-40
2022/05/31 06:39:01;;;;;;;5.95;2.30;;;14.90;93.70;;;;;;5052077;28;20025;-47
2022/05/31 06:41:27;;;;;;;4.65;2.10;;;14.60;94.10;;;;;;5051062;28;20037;-48
2022/05/31 06:43:52;;;;;;;3.28;2.00;;;15.10;94.00;;;;;;5067143;28;20078;-47
2022/05/31 06:46:19;;;;;;;2.78;1.67;;;16.40;92.50;;;;;;5072114;28;20032;-42
2022/05/31 06:48:45;;;;;;;5.07;2.33;;;17.30;90.60;;;;;;5060222;28;20053;-42
2022/05/31 06:51:13;;;;;;;4.00;2.05;;;17.50;89.70;;;;;;5054522;28;20407;-47
2022/05/31 06:59:08;;;;;;;4.10;2.67;;;16.60;90.80;;;;;;5058705;28;20507;-49
2022/05/31 07:01:37;;;;;;;2.40;1.77;;;16.30;91.60;;;;;;5066914;28;20476;-41
2022/05/31 07:06:36;;;;;;;4.53;2.17;;;16.20;92.50;;;;;;5065796;28;20044;-45
2022/05/31 07:09:02;;;;;;;5.55;2.38;;;16.40;91.70;;;;;;5054427;28;20454;-45
2022/05/31 07:11:28;;;;;;;3.38;2.20;;;16.70;91.10;;;;;;5055548;28;20361;-44
2022/05/31 07:13:53;;;;;;;3.47;2.20;;;17.00;91.30;;;;;;5071868;28;20035;-44
2022/05/31 07:16:19;;;;;;;2.88;2.05;;;17.20;90.60;;;;;;5071774;28;20511;-49
2022/05/31 07:18:44;;;;;;;7.15;1.95;;;16.90;90.90;;;;;;5071722;28;20480;-45
2022/05/31 07:21:10;;;;;;;2.60;1.60;;;17.10;91.30;;;;;;5050746;28;20066;-44
2022/05/31 07:23:38;;;;;;;3.70;2.22;;;17.90;90.00;;;;;;5050334;28;20021;-45
2022/05/31 07:26:04;;;;;;;3.58;2.05;;;18.00;89.20;;;;;;5052009;28;20021;-47
2022/05/31 07:28:30;;;;;;;2.50;1.80;;;17.80;89.40;;;;;;5051434;28;20056;-48
2022/05/31 07:30:56;;;;;;;5.60;2.85;;;17.50;89.90;;;;;;5051727;28;20151;-45
2022/05/31 07:33:22;;;;;;;5.95;2.05;;;17.80;90.30;;;;;;5051925;28;20033;-44
2022/05/31 07:35:49;;;;;;;3.03;1.75;;;18.30;89.20;;;;;;5051824;28;20485;-46
2022/05/31 07:38:16;;;;;;;9.63;2.63;;;18.00;88.80;;;;;;5051704;28;20404;-44
2022/05/31 07:40:43;;;;;;;5.15;2.15;;;18.00;88.10;;;;;;5052027;28;20032;-44
2022/05/31 07:43:08;;;;;;;3.75;2.10;;;17.70;89.20;;;;;;5052225;28;20086;-44
2022/05/31 07:45:34;;;;;;;5.70;1.80;;;17.70;90.20;;;;;;5052775;28;20033;-48
2022/05/31 07:48:00;;;;;;;1.80;1.70;;;18.60;88.50;;;;;;5051342;28;20040;-43
2022/05/31 07:50:26;;;;;;;3.38;1.83;;;19.70;84.70;;;;;;5051752;28;20669;-46
2022/05/31 07:52:51;;;;;;;9.57;2.10;;;19.90;83.00;;;;;;5051521;28;20580;-44
2022/05/31 07:55:17;;;;;;;3.15;1.80;;;19.70;83.80;;;;;;5051334;28;20100;-45
2022/05/31 08:00:44;;;;;;;1.67;1.55;;;19.10;85.00;;;;;;5029849;28;20516;-43
2022/05/31 08:03:10;;;;;;;3.97;2.17;;;18.70;85.40;;;;;;5050724;28;20041;-48
2022/05/31 08:05:40;;;;;;;6.85;1.88;;;18.30;86.00;;;;;;5055284;28;20485;-45
2022/05/31 08:08:06;;;;;;;3.78;2.20;;;18.90;85.40;;;;;;5054925;28;20025;-47
2022/05/31 08:10:31;;;;;;;2.70;1.45;;;19.40;83.60;;;;;;5055267;28;20096;-44
2022/05/31 08:12:57;;;;;;;1.48;1.35;;;19.20;83.30;;;;;;5055414;28;20056;-45
2022/05/31 08:15:22;;;;;;;4.47;1.77;;;19.80;83.80;;;;;;5055304;28;20025;-44
2022/05/31 08:17:48;;;;;;;6.25;2.00;;;20.40;81.60;;;;;;5055165;28;20032;-46
2022/05/31 08:20:16;;;;;;;10.88;2.20;;;20.30;81.50;;;;;;5055204;28;20033;-44
2022/05/31 08:22:44;;;;;;;4.82;1.83;;;20.20;82.50;;;;;;5054849;28;20129;-43
2022/05/31 08:25:10;;;;;;;5.05;3.53;;;20.30;80.90;;;;;;5055663;28;20467;-43
2022/05/31 08:27:36;;;;;;;5.70;4.55;;;20.60;80.90;;;;;;5054842;28;20426;-44
2022/05/31 08:30:04;;;;;;;10.25;7.25;;;20.10;81.30;;;;;;5055060;28;20021;-45
2022/05/31 08:32:31;;;;;;;4.70;2.75;;;19.90;83.00;;;;;;5054787;28;20492;-44
2022/05/31 08:34:57;;;;;;;2.42;2.20;;;19.80;83.00;;;;;;5054792;28;20017;-45
2022/05/31 08:37:22;;;;;;;2.55;1.85;;;19.80;83.20;;;;;;5054200;28;20392;-44
2022/05/31 08:39:48;;;;;;;9.23;1.40;;;19.90;81.50;;;;;;5054737;28;20048;-45
2022/05/31 08:42:25;;;;;;;1.83;1.70;;;20.20;81.10;;;;;;5054692;28;20032;-46
2022/05/31 08:45:00;;;;;;;1.88;1.55;;;20.20;81.90;;;;;;5054428;28;20032;-44
2022/05/31 08:47:36;;;;;;;5.50;1.50;;;20.10;80.60;;;;;;5054336;28;20032;-43
2022/05/31 08:53:24;;;;;;;3.33;1.38;;;20.20;80.40;;;;;;5055353;28;20154;-44
2022/05/31 08:58:49;;;;;;;7.07;1.73;;;20.70;80.10;;;;;;5054948;28;20083;-44
2022/05/31 09:01:20;;;;;;;7.18;1.70;;;20.60;79.80;;;;;;5055104;28;20091;-42
2022/05/31 09:03:51;;;;;;;1.98;1.77;;;20.50;79.20;;;;;;5054721;28;20084;-48
2022/05/31 09:06:39;;;;;;;2.55;1.23;;;20.20;80.90;;;;;;5052701;28;20063;-45
2022/05/31 09:09:19;;;;;;;3.33;1.30;;;20.00;82.80;;;;;;5053801;28;20036;-44
2022/05/31 09:12:00;;;;;;;2.50;1.45;;;20.00;81.80;;;;;;5052004;28;20028;-44
2022/05/31 09:14:44;;;;;;;4.53;1.50;;;20.10;81.00;;;;;;5052023;28;20017;-43
2022/05/31 09:17:23;;;;;;;3.60;1.67;;;20.20;81.60;;;;;;5052799;28;20031;-44
2022/05/31 09:20:01;;;;;;;2.40;1.67;;;20.60;81.30;;;;;;5053680;28;20057;-45
2022/05/31 09:22:27;;;;;;;2.17;1.52;;;20.70;79.60;;;;;;5054441;28;20029;-43
2022/05/31 09:24:53;;;;;;;6.75;2.20;;;20.90;79.90;;;;;;5053767;28;20025;-43
2022/05/31 09:27:31;;;;;;;3.63;1.85;;;21.30;78.20;;;;;;5054026;28;20017;-43
2022/05/31 09:30:07;;;;;;;3.33;1.63;;;21.50;77.70;;;;;;5053897;28;20497;-43
2022/05/31 09:32:40;;;;;;;4.95;1.80;;;21.70;78.20;;;;;;5053560;28;20086;-44
2022/05/31 09:35:29;;;;;;;3.80;1.77;;;21.80;77.80;;;;;;5053652;28;20028;-45
2022/05/31 09:38:19;;;;;;;7.97;1.67;;;21.80;75.40;;;;;;5053659;28;20021;-42
2022/05/31 09:40:48;;;;;;;4.88;1.52;;;21.50;74.40;;;;;;5053626;28;20096;-43
2022/05/31 09:43:24;;;;;;;2.05;1.25;;;21.40;74.60;;;;;;5053169;28;20479;-47
2022/05/31 09:46:00;;;;;;;1.63;1.45;;;21.50;73.80;;;;;;5053596;28;20504;-43
2022/05/31 09:48:27;;;;;;;1.50;1.40;;;21.30;74.30;;;;;;5053493;28;20064;-45
2022/05/31 09:51:03;;;;;;;2.35;1.63;;;21.10;74.70;;;;;;5053306;28;20389;-45
2022/05/31 09:59:09;;;;;;;2.67;1.88;;;20.70;76.60;;;;;;5053124;28;20036;-43
2022/05/31 10:01:45;;;;;;;4.57;1.50;;;20.90;76.90;;;;;;5053134;28;20108;-46
2022/05/31 10:04:19;;;;;;;1.85;1.48;;;21.00;76.30;;;;;;5053068;28;20120;-44
2022/05/31 10:06:54;;;;;;;44.10;31.60;;;21.10;76.20;;;;;;5052848;28;20040;-41
2022/05/31 10:09:22;;;;;;;;;;;21.10;75.60;;;;;;5053139;28;20124;-43
2022/05/31 10:11:49;;;;;;;10.50;5.38;;;21.30;74.90;;;;;;5053095;28;19952;-45
2022/05/31 10:14:25;;;;;;;6.45;2.47;;;21.30;75.30;;;;;;5052870;28;20055;-45
2022/05/31 10:16:54;;;;;;;3.70;1.80;;;21.10;76.30;;;;;;5052923;28;20025;-47
2022/05/31 10:19:30;;;;;;;6.45;1.52;;;21.20;76.50;;;;;;5052514;28;20028;-45
2022/05/31 10:22:13;;;;;;;3.22;1.55;;;21.30;76.70;;;;;;5052915;28;20016;-42
2022/05/31 10:24:39;;;;;;;3.55;1.85;;;21.40;76.60;;;;;;5052177;28;20056;-46
2022/05/31 10:27:12;;;;;;;2.42;1.58;;;21.50;74.40;;;;;;5052243;28;20032;-45
2022/05/31 10:29:40;;;;;;;10.95;2.92;;;21.50;74.20;;;;;;5052347;28;20032;-47
2022/05/31 10:32:33;;;;;;;13.80;4.72;;;21.40;75.00;;;;;;5052736;28;20074;-45
2022/05/31 10:35:21;;;;;;;4.70;1.55;;;21.30;75.10;;;;;;5052424;28;20546;-44
2022/05/31 10:37:57;;;;;;;2.15;1.45;;;21.20;75.70;;;;;;5052407;28;20070;-46
2022/05/31 10:40:28;;;;;;;6.72;2.30;;;21.20;76.10;;;;;;5052435;28;20100;-43
2022/05/31 10:43:01;;;;;;;4.68;1.90;;;21.20;75.60;;;;;;5052750;28;20127;-43
2022/05/31 10:45:31;;;;;;;2.60;1.90;;;21.20;75.80;;;;;;5052169;28;20047;-45
2022/05/31 10:47:57;;;;;;;3.35;1.85;;;21.20;74.80;;;;;;5052187;28;20025;-46
2022/05/31 10:50:34;;;;;;;6.65;2.60;;;21.10;74.90;;;;;;5052411;28;20053;-43
2022/05/31 10:53:30;;;;;;;5.70;2.35;;;20.90;75.80;;;;;;5052020;28;20074;-44
2022/05/31 10:56:05;;;;;;;3.53;1.70;;;20.60;75.70;;;;;;5052141;28;20017;-46
2022/05/31 10:58:41;;;;;;;;;;;20.50;75.40;;;;;;5052602;28;20396;-45
2022/05/31 11:01:18;;;;;;;2.10;1.80;;;20.40;78.10;;;;;;5051246;28;19912;-46
2022/05/31 11:03:53;;;;;;;1.77;1.38;;;20.40;76.20;;;;;;5045238;28;20450;-45
2022/05/31 11:06:34;;;;;;;3.88;1.75;;;20.50;76.40;;;;;;5047764;28;20029;-46
2022/05/31 11:12:43;;;;;;;2.00;1.15;;;20.70;74.50;;;;;;5071024;28;20527;-42
2022/05/31 11:15:31;;;;;;;11.80;4.38;;;20.70;74.00;;;;;;5061956;28;20028;-43
2022/05/31 11:18:19;;;;;;;24.63;17.73;;;20.80;73.60;;;;;;5051321;28;20025;-45
2022/05/31 11:20:55;;;;;;;3.03;2.50;;;20.90;72.30;;;;;;5045184;28;20040;-42
2022/05/31 11:23:42;;;;;;;1.85;1.20;;;20.90;75.40;;;;;;5051124;28;20477;-49
2022/05/31 11:26:25;;;;;;;1.33;1.23;;;20.90;74.50;;;;;;5049865;28;20021;-47
2022/05/31 11:29:13;;;;;;;1.60;1.10;;;20.90;73.80;;;;;;5031003;28;20022;-45
2022/05/31 11:31:41;;;;;;;1.73;1.10;;;20.90;73.70;;;;;;5039312;28;20056;-43
2022/05/31 11:34:31;;;;;;;5.68;1.17;;;20.90;73.20;;;;;;5050902;28;20021;-46
2022/05/31 11:37:35;;;;;;;1.38;1.13;;;20.90;75.30;;;;;;5050075;28;20564;-46
2022/05/31 11:40:13;;;;;;;2.70;1.15;;;20.90;73.90;;;;;;5048644;28;20071;-48
2022/05/31 11:43:03;;;;;;;2.63;1.40;;;20.90;71.90;;;;;;5071264;28;20047;-50
2022/05/31 11:45:35;;;;;;;1.83;1.02;;;21.00;71.10;;;;;;5056500;28;20108;-48
2022/05/31 11:48:38;;;;;;;1.83;1.20;;;21.00;72.70;;;;;;5050382;28;20037;-44
2022/05/31 11:51:39;;;;;;;1.90;1.15;;;21.00;72.20;;;;;;5051095;28;20032;-44
2022/05/31 11:54:29;;;;;;;1.80;1.27;;;20.90;69.90;;;;;;5051580;28;20477;-43
2022/05/31 11:57:46;;;;;;;2.63;1.25;;;20.90;72.10;;;;;;5051080;28;20032;-42
2022/05/31 12:00:12;;;;;;;1.95;1.20;;;20.90;69.30;;;;;;5050998;28;20079;-41
2022/05/31 12:03:00;;;;;;;1.10;0.90;;;21.00;67.10;;;;;;5050575;28;20099;-44
2022/05/31 12:05:32;;;;;;;2.35;1.40;;;21.00;66.50;;;;;;5050249;28;20468;-44
2022/05/31 12:08:04;;;;;;;3.22;1.00;;;21.10;67.20;;;;;;5050860;28;20108;-44
2022/05/31 12:10:37;;;;;;;2.05;1.17;;;21.10;66.90;;;;;;5051413;28;20036;-44
2022/05/31 12:13:08;;;;;;;3.47;1.58;;;21.20;67.50;;;;;;5051626;28;20036;-45
2022/05/31 12:15:36;;;;;;;1.67;1.55;;;21.20;67.60;;;;;;5051518;28;20365;-49
2022/05/31 12:18:15;;;;;;;3.60;1.38;;;21.20;67.90;;;;;;5050692;28;20021;-44
2022/05/31 12:21:05;;;;;;;1.73;0.90;;;21.20;68.00;;;;;;5050893;28;20029;-46
2022/05/31 12:23:54;;;;;;;8.25;1.55;;;21.20;67.90;;;;;;5031228;28;20115;-47
2022/05/31 12:26:28;;;;;;;1.48;1.08;;;21.30;67.60;;;;;;5031293;28;20079;-43
2022/05/31 12:29:22;;;;;;;1.20;1.02;;;21.40;65.80;;;;;;5030662;28;20116;-43
2022/05/31 12:31:48;;;;;;;1.50;1.40;;;21.40;66.80;;;;;;5013021;28;20396;-46
2022/05/31 12:34:20;;;;;;;0.90;0.90;;;21.50;66.30;;;;;;5060328;28;20024;-44
2022/05/31 12:36:56;;;;;;;1.48;0.85;;;21.60;66.50;;;;;;5063006;28;20108;-46
2022/05/31 12:39:27;;;;;;;1.67;1.25;;;21.70;69.50;;;;;;5043015;28;20029;-46
2022/05/31 12:41:53;;;;;;;1.10;1.00;;;21.70;67.10;;;;;;5070811;28;20077;-45
2022/05/31 12:44:34;;;;;;;2.90;1.00;;;21.80;66.50;;;;;;5057657;28;20113;-45
2022/05/31 12:47:30;;;;;;;3.60;1.00;;;21.90;67.80;;;;;;5055782;28;20104;-47
2022/05/31 12:50:05;;;;;;;1.38;0.90;;;22.10;63.40;;;;;;5074346;28;20034;-47
2022/05/31 12:52:53;;;;;;;3.03;0.98;;;22.10;62.10;;;;;;5055817;28;20059;-50
2022/05/31 12:55:25;;;;;;;0.80;0.80;;;22.10;61.50;;;;;;5054025;28;20080;-46
2022/05/31 13:00:50;;;;;;;1.50;1.00;;;21.90;64.40;;;;;;5054385;28;20036;-49
2022/05/31 13:03:33;;;;;;;2.17;1.30;;;21.80;63.50;;;;;;5060903;28;20091;-45
2022/05/31 13:06:07;;;;;;;1.85;1.02;;;21.80;63.00;;;;;;5077769;22;20465;-48
2022/05/31 13:08:48;;;;;;;3.15;1.05;;;21.80;63.00;;;;;;5052974;28;20032;-45
2022/05/31 13:20:09;;;;;;;2.40;1.98;;;21.70;62.70;;;;;;5034012;28;20071;-46
2022/05/31 13:22:40;;;;;;;2.92;1.10;;;21.70;63.70;;;;;;5032392;28;20028;-46
2022/05/31 13:25:27;;;;;;;2.00;1.10;;;21.80;64.90;;;;;;5033835;28;20021;-48
2022/05/31 13:27:56;;;;;;;2.15;1.23;;;21.80;62.30;;;;;;5033355;28;20083;-47
2022/05/31 13:30:25;;;;;;;1.48;1.13;;;21.70;62.70;;;;;;5033693;28;20060;-44
2022/05/31 13:32:50;;;;;;;1.10;1.00;;;21.70;63.00;;;;;;5032210;28;20053;-44
2022/05/31 13:35:29;;;;;;;2.83;1.00;;;21.70;62.20;;;;;;5033552;28;20436;-50
2022/05/31 13:38:04;;;;;;;5.03;1.00;;;21.80;64.00;;;;;;5032163;28;20464;-47
2022/05/31 13:40:32;;;;;;;;;;;22.00;63.80;;;;;;5033602;28;20025;-47
2022/05/31 13:42:59;;;;;;;1.60;1.00;;;22.10;63.30;;;;;;5033454;28;19905;-47
2022/05/31 13:45:28;;;;;;;2.97;0.98;;;22.20;62.90;;;;;;5033053;28;20021;-46
2022/05/31 13:47:57;;;;;;;5.38;1.13;;;22.20;61.20;;;;;;5033891;28;20481;-47
2022/05/31 13:50:26;;;;;;;1.58;0.90;;;22.20;63.90;;;;;;5032474;28;20032;-50
2022/05/31 13:52:53;;;;;;;0.98;0.90;;;22.20;62.90;;;;;;5032189;28;20021;-44
2022/05/31 13:55:22;;;;;;;2.90;1.00;;;22.30;63.80;;;;;;5032924;28;20027;-46